sensor_id;sensor_type;location;lat;lon;timestamp;P1;durP1;ratioP1;P2;durP2;ratioP2
10041;SDS011;5061;49.068;12.058;2022-08-19T00:00:41;8.27;;;7.10;;
10041;SDS011;5061;49.068;12.058;2022-08-19T00:04:06;7.00;;;6.33;;
10041;SDS011;5061;49.068;12.058;2022-08-19T00:07:28;6.10;;;5.60;;
10041;SDS011;5061;49.068;12.058;2022-08-19T00:10:49;7.33;;;6.63;;
10041;SDS011;5061;49.068;12.058;2022-08-19T00:14:11;7.53;;;6.80;;
10041;SDS011;5061;49.068;12.058;2022-08-19T00:17:33;11.50;;;9.47;;
10041;SDS011;5061;49.068;12.058;2022-08-19T00:20:53;8.47;;;7.67;;
10041;SDS011;5061;49.068;12.058;2022-08-19T00:24:14;6.63;;;6.03;;
10041;SDS011;5061;49.068;12.058;2022-08-19T00:27:35;6.10;;;5.50;;
10041;SDS011;5061;49.068;12.058;2022-08-19T00:30:56;7.23;;;6.50;;
10041;SDS011;5061;49.068;12.058;2022-08-19T00:34:17;7.60;;;6.50;;
10041;SDS011;5061;49.068;12.058;2022-08-19T00:37:38;9.10;;;7.90;;
10041;SDS011;5061;49.068;12.058;2022-08-19T00:41:03;8.70;;;7.80;;
10041;SDS011;5061;49.068;12.058;2022-08-19T00:44:26;8.63;;;7.73;;
10041;SDS011;5061;49.068;12.058;2022-08-19T00:47:48;9.70;;;8.70;;
10041;SDS011;5061;49.068;12.058;2022-08-19T00:51:09;8.40;;;7.60;;
10041;SDS011;5061;49.068;12.058;2022-08-19T00:54:29;8.97;;;8.07;;
10041;SDS011;5061;49.068;12.058;2022-08-19T00:57:52;7.80;;;6.03;;
10041;SDS011;5061;49.068;12.058;2022-08-19T01:01:16;7.23;;;6.50;;
10041;SDS011;5061;49.068;12.058;2022-08-19T01:04:36;8.30;;;7.40;;
10041;SDS011;5061;49.068;12.058;2022-08-19T01:07:58;8.77;;;7.97;;
10041;SDS011;5061;49.068;12.058;2022-08-19T01:11:20;8.27;;;7.47;;
10041;SDS011;5061;49.068;12.058;2022-08-19T01:14:41;9.37;;;8.37;;
10041;SDS011;5061;49.068;12.058;2022-08-19T01:18:06;8.37;;;7.20;;
10041;SDS011;5061;49.068;12.058;2022-08-19T01:21:42;11.70;;;8.30;;
10041;SDS011;5061;49.068;12.058;2022-08-19T01:25:08;8.43;;;7.63;;
10041;SDS011;5061;49.068;12.058;2022-08-19T01:28:29;8.57;;;7.40;;
10041;SDS011;5061;49.068;12.058;2022-08-19T01:31:49;7.37;;;6.67;;
10041;SDS011;5061;49.068;12.058;2022-08-19T01:35:12;8.30;;;7.50;;
10041;SDS011;5061;49.068;12.058;2022-08-19T01:38:34;6.63;;;5.70;;
10041;SDS011;5061;49.068;12.058;2022-08-19T01:41:56;7.03;;;6.17;;
10041;SDS011;5061;49.068;12.058;2022-08-19T01:45:17;5.87;;;5.27;;
10041;SDS011;5061;49.068;12.058;2022-08-19T01:48:40;6.03;;;5.13;;
10041;SDS011;5061;49.068;12.058;2022-08-19T01:52:01;5.10;;;4.63;;
10041;SDS011;5061;49.068;12.058;2022-08-19T01:55:23;6.80;;;6.10;;
10041;SDS011;5061;49.068;12.058;2022-08-19T01:58:54;5.83;;;5.23;;
10041;SDS011;5061;49.068;12.058;2022-08-19T02:02:19;5.70;;;5.20;;
10041;SDS011;5061;49.068;12.058;2022-08-19T02:05:40;6.40;;;5.80;;
10041;SDS011;5061;49.068;12.058;2022-08-19T02:09:01;8.50;;;7.30;;
10041;SDS011;5061;49.068;12.058;2022-08-19T02:12:22;9.37;;;8.27;;
10041;SDS011;5061;49.068;12.058;2022-08-19T02:15:43;6.00;;;5.40;;
10041;SDS011;5061;49.068;12.058;2022-08-19T02:19:04;7.70;;;6.07;;
10041;SDS011;5061;49.068;12.058;2022-08-19T02:22:24;7.60;;;6.90;;
10041;SDS011;5061;49.068;12.058;2022-08-19T02:25:46;7.77;;;6.97;;
10041;SDS011;5061;49.068;12.058;2022-08-19T02:29:07;8.70;;;7.90;;
10041;SDS011;5061;49.068;12.058;2022-08-19T02:32:28;5.70;;;5.20;;
10041;SDS011;5061;49.068;12.058;2022-08-19T02:35:50;6.10;;;5.53;;
10041;SDS011;5061;49.068;12.058;2022-08-19T02:39:11;4.70;;;4.30;;
10041;SDS011;5061;49.068;12.058;2022-08-19T02:42:31;6.37;;;5.77;;
10041;SDS011;5061;49.068;12.058;2022-08-19T02:45:52;5.87;;;5.27;;
10041;SDS011;5061;49.068;12.058;2022-08-19T02:49:13;4.67;;;4.27;;
10041;SDS011;5061;49.068;12.058;2022-08-19T02:52:36;4.27;;;3.87;;
10041;SDS011;5061;49.068;12.058;2022-08-19T02:55:56;3.73;;;3.43;;
10041;SDS011;5061;49.068;12.058;2022-08-19T02:59:17;4.40;;;4.00;;
10041;SDS011;5061;49.068;12.058;2022-08-19T03:02:38;5.67;;;5.07;;
10041;SDS011;5061;49.068;12.058;2022-08-19T03:06:03;6.83;;;6.13;;
10041;SDS011;5061;49.068;12.058;2022-08-19T03:09:28;5.70;;;5.20;;
10041;SDS011;5061;49.068;12.058;2022-08-19T03:12:50;6.83;;;6.13;;
10041;SDS011;5061;49.068;12.058;2022-08-19T03:16:11;5.90;;;5.30;;
10041;SDS011;5061;49.068;12.058;2022-08-19T03:19:32;7.17;;;6.33;;
10041;SDS011;5061;49.068;12.058;2022-08-19T03:22:53;5.67;;;5.17;;
10041;SDS011;5061;49.068;12.058;2022-08-19T03:26:13;5.50;;;5.00;;
10041;SDS011;5061;49.068;12.058;2022-08-19T03:29:36;5.90;;;5.30;;
10041;SDS011;5061;49.068;12.058;2022-08-19T03:32:58;5.60;;;5.10;;
10041;SDS011;5061;49.068;12.058;2022-08-19T03:36:21;5.50;;;5.00;;
10041;SDS011;5061;49.068;12.058;2022-08-19T03:39:43;5.23;;;4.73;;
10041;SDS011;5061;49.068;12.058;2022-08-19T03:43:03;3.87;;;3.57;;
10041;SDS011;5061;49.068;12.058;2022-08-19T03:46:27;4.37;;;3.97;;
10041;SDS011;5061;49.068;12.058;2022-08-19T03:49:50;2.90;;;2.70;;
10041;SDS011;5061;49.068;12.058;2022-08-19T03:53:11;3.07;;;2.83;;
10041;SDS011;5061;49.068;12.058;2022-08-19T03:56:33;3.67;;;3.37;;
10041;SDS011;5061;49.068;12.058;2022-08-19T03:59:56;4.03;;;3.30;;
10041;SDS011;5061;49.068;12.058;2022-08-19T04:03:16;3.33;;;2.93;;
10041;SDS011;5061;49.068;12.058;2022-08-19T04:06:38;4.53;;;4.13;;
10041;SDS011;5061;49.068;12.058;2022-08-19T04:09:59;3.73;;;3.43;;
10041;SDS011;5061;49.068;12.058;2022-08-19T04:13:20;4.00;;;3.70;;
10041;SDS011;5061;49.068;12.058;2022-08-19T04:16:41;3.33;;;3.03;;
10041;SDS011;5061;49.068;12.058;2022-08-19T04:20:04;3.10;;;2.80;;
10041;SDS011;5061;49.068;12.058;2022-08-19T04:23:25;3.00;;;2.70;;
10041;SDS011;5061;49.068;12.058;2022-08-19T04:26:48;3.13;;;2.60;;
10041;SDS011;5061;49.068;12.058;2022-08-19T04:30:09;2.97;;;2.77;;
10041;SDS011;5061;49.068;12.058;2022-08-19T04:33:30;2.70;;;2.50;;
10041;SDS011;5061;49.068;12.058;2022-08-19T04:36:52;3.37;;;3.07;;
10041;SDS011;5061;49.068;12.058;2022-08-19T04:40:13;2.73;;;2.53;;
10041;SDS011;5061;49.068;12.058;2022-08-19T04:43:53;2.93;;;2.73;;
10041;SDS011;5061;49.068;12.058;2022-08-19T04:47:13;3.13;;;2.83;;
10041;SDS011;5061;49.068;12.058;2022-08-19T04:50:34;3.87;;;3.47;;
10041;SDS011;5061;49.068;12.058;2022-08-19T04:53:54;2.67;;;2.47;;
10041;SDS011;5061;49.068;12.058;2022-08-19T04:57:15;4.20;;;3.80;;
10041;SDS011;5061;49.068;12.058;2022-08-19T05:00:37;2.83;;;2.63;;
10041;SDS011;5061;49.068;12.058;2022-08-19T05:04:00;3.37;;;3.07;;
10041;SDS011;5061;49.068;12.058;2022-08-19T05:07:21;3.30;;;3.00;;
10041;SDS011;5061;49.068;12.058;2022-08-19T05:10:42;2.80;;;2.60;;
10041;SDS011;5061;49.068;12.058;2022-08-19T05:14:02;3.97;;;3.67;;
10041;SDS011;5061;49.068;12.058;2022-08-19T05:17:24;3.73;;;3.43;;
10041;SDS011;5061;49.068;12.058;2022-08-19T05:20:46;4.00;;;3.67;;
10041;SDS011;5061;49.068;12.058;2022-08-19T05:24:26;3.73;;;3.33;;
10041;SDS011;5061;49.068;12.058;2022-08-19T05:27:47;3.43;;;3.13;;
10041;SDS011;5061;49.068;12.058;2022-08-19T05:31:08;3.93;;;3.53;;
10041;SDS011;5061;49.068;12.058;2022-08-19T05:34:29;4.43;;;4.03;;
10041;SDS011;5061;49.068;12.058;2022-08-19T05:37:49;3.90;;;3.53;;
10041;SDS011;5061;49.068;12.058;2022-08-19T05:41:11;4.37;;;3.97;;
10041;SDS011;5061;49.068;12.058;2022-08-19T05:44:37;4.33;;;3.93;;
10041;SDS011;5061;49.068;12.058;2022-08-19T05:48:03;4.60;;;4.20;;
10041;SDS011;5061;49.068;12.058;2022-08-19T05:51:24;3.73;;;3.43;;
10041;SDS011;5061;49.068;12.058;2022-08-19T05:54:45;4.47;;;4.10;;
10041;SDS011;5061;49.068;12.058;2022-08-19T05:58:07;4.33;;;3.93;;
10041;SDS011;5061;49.068;12.058;2022-08-19T06:01:28;3.73;;;3.43;;
10041;SDS011;5061;49.068;12.058;2022-08-19T06:04:49;4.20;;;3.80;;
10041;SDS011;5061;49.068;12.058;2022-08-19T06:08:09;4.40;;;4.00;;
10041;SDS011;5061;49.068;12.058;2022-08-19T06:11:41;4.70;;;4.20;;
10041;SDS011;5061;49.068;12.058;2022-08-19T06:15:08;3.90;;;3.60;;
10041;SDS011;5061;49.068;12.058;2022-08-19T06:18:31;5.50;;;4.93;;
10041;SDS011;5061;49.068;12.058;2022-08-19T06:21:53;6.87;;;5.03;;
10041;SDS011;5061;49.068;12.058;2022-08-19T06:25:13;5.50;;;4.40;;
10041;SDS011;5061;49.068;12.058;2022-08-19T06:28:35;4.93;;;4.43;;
10041;SDS011;5061;49.068;12.058;2022-08-19T06:31:56;4.37;;;3.97;;
10041;SDS011;5061;49.068;12.058;2022-08-19T06:35:18;5.90;;;5.30;;
10041;SDS011;5061;49.068;12.058;2022-08-19T06:38:39;6.47;;;5.80;;
10041;SDS011;5061;49.068;12.058;2022-08-19T06:42:01;5.87;;;5.30;;
10041;SDS011;5061;49.068;12.058;2022-08-19T06:45:26;5.30;;;4.80;;
10041;SDS011;5061;49.068;12.058;2022-08-19T06:48:47;4.83;;;4.33;;
10041;SDS011;5061;49.068;12.058;2022-08-19T06:52:08;5.67;;;5.17;;
10041;SDS011;5061;49.068;12.058;2022-08-19T06:55:32;4.00;;;3.70;;
10041;SDS011;5061;49.068;12.058;2022-08-19T06:58:52;5.50;;;4.87;;
10041;SDS011;5061;49.068;12.058;2022-08-19T07:02:13;5.07;;;4.60;;
10041;SDS011;5061;49.068;12.058;2022-08-19T07:05:40;3.87;;;3.57;;
10041;SDS011;5061;49.068;12.058;2022-08-19T07:09:02;5.13;;;4.73;;
10041;SDS011;5061;49.068;12.058;2022-08-19T07:12:24;5.07;;;4.30;;
10041;SDS011;5061;49.068;12.058;2022-08-19T07:15:46;5.20;;;4.73;;
10041;SDS011;5061;49.068;12.058;2022-08-19T07:19:06;4.73;;;4.33;;
10041;SDS011;5061;49.068;12.058;2022-08-19T07:22:27;5.57;;;5.07;;
10041;SDS011;5061;49.068;12.058;2022-08-19T07:25:48;4.83;;;4.33;;
10041;SDS011;5061;49.068;12.058;2022-08-19T07:29:09;5.33;;;4.60;;
10041;SDS011;5061;49.068;12.058;2022-08-19T07:32:30;3.67;;;3.33;;
10041;SDS011;5061;49.068;12.058;2022-08-19T07:35:51;4.20;;;3.80;;
10041;SDS011;5061;49.068;12.058;2022-08-19T07:39:13;4.00;;;3.60;;
10041;SDS011;5061;49.068;12.058;2022-08-19T07:42:36;4.60;;;4.20;;
10041;SDS011;5061;49.068;12.058;2022-08-19T07:45:57;3.77;;;3.47;;
10041;SDS011;5061;49.068;12.058;2022-08-19T07:49:18;3.80;;;3.40;;
10041;SDS011;5061;49.068;12.058;2022-08-19T07:52:40;4.13;;;3.80;;
10041;SDS011;5061;49.068;12.058;2022-08-19T07:56:01;3.30;;;3.00;;
10041;SDS011;5061;49.068;12.058;2022-08-19T07:59:27;2.70;;;2.50;;
10041;SDS011;5061;49.068;12.058;2022-08-19T08:02:48;4.47;;;4.07;;
10041;SDS011;5061;49.068;12.058;2022-08-19T08:06:09;5.60;;;5.10;;
10041;SDS011;5061;49.068;12.058;2022-08-19T08:09:49;5.53;;;5.03;;
10041;SDS011;5061;49.068;12.058;2022-08-19T08:13:10;5.90;;;5.30;;
10041;SDS011;5061;49.068;12.058;2022-08-19T08:16:35;4.63;;;4.23;;
10041;SDS011;5061;49.068;12.058;2022-08-19T08:19:57;4.47;;;4.07;;
10041;SDS011;5061;49.068;12.058;2022-08-19T08:23:17;3.60;;;3.30;;
10041;SDS011;5061;49.068;12.058;2022-08-19T08:26:49;3.80;;;3.50;;
10041;SDS011;5061;49.068;12.058;2022-08-19T08:30:11;3.83;;;3.53;;
10041;SDS011;5061;49.068;12.058;2022-08-19T08:33:36;5.50;;;5.00;;
10041;SDS011;5061;49.068;12.058;2022-08-19T08:36:56;6.90;;;6.20;;
10041;SDS011;5061;49.068;12.058;2022-08-19T08:43:58;5.93;;;5.43;;
10041;SDS011;5061;49.068;12.058;2022-08-19T08:47:20;6.90;;;6.30;;
10041;SDS011;5061;49.068;12.058;2022-08-19T08:50:43;6.17;;;5.57;;
10041;SDS011;5061;49.068;12.058;2022-08-19T08:54:08;7.30;;;6.60;;
10041;SDS011;5061;49.068;12.058;2022-08-19T08:57:34;6.63;;;5.93;;
10041;SDS011;5061;49.068;12.058;2022-08-19T09:00:57;6.07;;;5.47;;
10041;SDS011;5061;49.068;12.058;2022-08-19T09:04:17;7.43;;;6.43;;
10041;SDS011;5061;49.068;12.058;2022-08-19T09:11:15;8.97;;;7.57;;
10041;SDS011;5061;49.068;12.058;2022-08-19T09:18:10;9.00;;;7.53;;
10041;SDS011;5061;49.068;12.058;2022-08-19T09:21:31;7.13;;;6.43;;
10041;SDS011;5061;49.068;12.058;2022-08-19T09:24:52;5.23;;;4.77;;
10041;SDS011;5061;49.068;12.058;2022-08-19T09:28:13;5.33;;;4.83;;
10041;SDS011;5061;49.068;12.058;2022-08-19T09:31:34;3.93;;;3.63;;
10041;SDS011;5061;49.068;12.058;2022-08-19T09:34:55;5.07;;;4.57;;
10041;SDS011;5061;49.068;12.058;2022-08-19T09:38:19;5.70;;;5.10;;
10041;SDS011;5061;49.068;12.058;2022-08-19T09:41:40;4.93;;;4.50;;
10041;SDS011;5061;49.068;12.058;2022-08-19T09:45:02;3.97;;;3.57;;
10041;SDS011;5061;49.068;12.058;2022-08-19T09:48:23;4.30;;;3.90;;
10041;SDS011;5061;49.068;12.058;2022-08-19T09:51:44;3.70;;;3.30;;
10041;SDS011;5061;49.068;12.058;2022-08-19T09:55:09;3.57;;;3.27;;
10041;SDS011;5061;49.068;12.058;2022-08-19T09:58:30;3.70;;;3.40;;
10041;SDS011;5061;49.068;12.058;2022-08-19T10:01:52;4.27;;;3.80;;
10041;SDS011;5061;49.068;12.058;2022-08-19T10:05:13;4.47;;;4.07;;
10041;SDS011;5061;49.068;12.058;2022-08-19T10:08:52;4.30;;;3.90;;
10041;SDS011;5061;49.068;12.058;2022-08-19T10:12:13;5.60;;;4.80;;
10041;SDS011;5061;49.068;12.058;2022-08-19T10:15:35;3.47;;;3.17;;
10041;SDS011;5061;49.068;12.058;2022-08-19T10:18:57;3.50;;;3.20;;
10041;SDS011;5061;49.068;12.058;2022-08-19T10:22:18;3.77;;;3.47;;
10041;SDS011;5061;49.068;12.058;2022-08-19T10:25:39;3.77;;;3.07;;
10041;SDS011;5061;49.068;12.058;2022-08-19T10:28:59;3.90;;;3.57;;
10041;SDS011;5061;49.068;12.058;2022-08-19T10:32:20;3.00;;;2.80;;
10041;SDS011;5061;49.068;12.058;2022-08-19T10:35:41;3.33;;;3.03;;
10041;SDS011;5061;49.068;12.058;2022-08-19T10:39:03;3.70;;;3.40;;
10041;SDS011;5061;49.068;12.058;2022-08-19T10:42:28;6.80;;;6.10;;
10041;SDS011;5061;49.068;12.058;2022-08-19T10:45:54;6.03;;;5.43;;
10041;SDS011;5061;49.068;12.058;2022-08-19T10:49:19;4.93;;;4.43;;
10041;SDS011;5061;49.068;12.058;2022-08-19T10:52:40;5.33;;;4.80;;
10041;SDS011;5061;49.068;12.058;2022-08-19T10:56:02;7.20;;;6.50;;
10041;SDS011;5061;49.068;12.058;2022-08-19T10:59:41;9.00;;;7.30;;
10041;SDS011;5061;49.068;12.058;2022-08-19T11:03:05;7.70;;;6.90;;
10041;SDS011;5061;49.068;12.058;2022-08-19T11:06:25;6.63;;;6.03;;
10041;SDS011;5061;49.068;12.058;2022-08-19T11:09:46;5.70;;;5.20;;
10041;SDS011;5061;49.068;12.058;2022-08-19T11:13:06;5.80;;;5.30;;
10041;SDS011;5061;49.068;12.058;2022-08-19T11:16:27;5.47;;;4.97;;
10041;SDS011;5061;49.068;12.058;2022-08-19T11:19:50;5.30;;;4.80;;
10041;SDS011;5061;49.068;12.058;2022-08-19T11:23:10;5.80;;;5.30;;
10041;SDS011;5061;49.068;12.058;2022-08-19T11:26:32;6.20;;;5.60;;
10041;SDS011;5061;49.068;12.058;2022-08-19T11:29:53;6.73;;;6.03;;
10041;SDS011;5061;49.068;12.058;2022-08-19T11:33:14;4.90;;;4.50;;
10041;SDS011;5061;49.068;12.058;2022-08-19T11:36:37;6.30;;;5.70;;
10041;SDS011;5061;49.068;12.058;2022-08-19T11:39:59;6.33;;;5.37;;
10041;SDS011;5061;49.068;12.058;2022-08-19T11:43:20;4.73;;;4.33;;
10041;SDS011;5061;49.068;12.058;2022-08-19T11:46:41;3.37;;;3.07;;
10041;SDS011;5061;49.068;12.058;2022-08-19T11:50:06;4.30;;;3.90;;
10041;SDS011;5061;49.068;12.058;2022-08-19T11:53:26;4.50;;;4.10;;
10041;SDS011;5061;49.068;12.058;2022-08-19T11:56:50;3.40;;;3.00;;
10041;SDS011;5061;49.068;12.058;2022-08-19T12:00:11;3.00;;;2.73;;
10041;SDS011;5061;49.068;12.058;2022-08-19T12:03:33;3.37;;;3.07;;
10041;SDS011;5061;49.068;12.058;2022-08-19T12:06:54;3.13;;;2.83;;
10041;SDS011;5061;49.068;12.058;2022-08-19T12:10:14;3.33;;;3.03;;
10041;SDS011;5061;49.068;12.058;2022-08-19T12:13:38;4.10;;;3.70;;
10041;SDS011;5061;49.068;12.058;2022-08-19T12:16:59;3.73;;;3.40;;
10041;SDS011;5061;49.068;12.058;2022-08-19T12:20:20;3.50;;;3.20;;
10041;SDS011;5061;49.068;12.058;2022-08-19T12:23:41;3.07;;;2.80;;
10041;SDS011;5061;49.068;12.058;2022-08-19T12:27:03;2.90;;;2.70;;
10041;SDS011;5061;49.068;12.058;2022-08-19T12:30:24;3.20;;;2.90;;
10041;SDS011;5061;49.068;12.058;2022-08-19T12:33:45;3.43;;;3.13;;
10041;SDS011;5061;49.068;12.058;2022-08-19T12:37:07;3.63;;;3.33;;
10041;SDS011;5061;49.068;12.058;2022-08-19T12:40:28;4.47;;;4.07;;
10041;SDS011;5061;49.068;12.058;2022-08-19T12:43:49;4.53;;;4.13;;
10041;SDS011;5061;49.068;12.058;2022-08-19T12:47:11;5.27;;;4.77;;
10041;SDS011;5061;49.068;12.058;2022-08-19T12:50:33;5.40;;;4.90;;
10041;SDS011;5061;49.068;12.058;2022-08-19T12:53:54;4.03;;;3.70;;
10041;SDS011;5061;49.068;12.058;2022-08-19T12:57:15;4.97;;;4.47;;
10041;SDS011;5061;49.068;12.058;2022-08-19T13:00:35;4.37;;;3.97;;
10041;SDS011;5061;49.068;12.058;2022-08-19T13:03:56;4.50;;;4.10;;
10041;SDS011;5061;49.068;12.058;2022-08-19T13:07:17;5.53;;;4.93;;
10041;SDS011;5061;49.068;12.058;2022-08-19T13:10:37;4.53;;;4.13;;
10041;SDS011;5061;49.068;12.058;2022-08-19T13:13:58;5.23;;;4.60;;
10041;SDS011;5061;49.068;12.058;2022-08-19T13:17:20;5.90;;;5.30;;
10041;SDS011;5061;49.068;12.058;2022-08-19T13:20:40;4.43;;;4.03;;
10041;SDS011;5061;49.068;12.058;2022-08-19T13:24:01;4.70;;;4.30;;
10041;SDS011;5061;49.068;12.058;2022-08-19T13:27:22;5.13;;;4.63;;
10041;SDS011;5061;49.068;12.058;2022-08-19T13:30:46;5.23;;;4.73;;
10041;SDS011;5061;49.068;12.058;2022-08-19T13:34:28;6.13;;;5.53;;
10041;SDS011;5061;49.068;12.058;2022-08-19T13:37:51;5.00;;;4.60;;
10041;SDS011;5061;49.068;12.058;2022-08-19T13:41:12;3.50;;;3.20;;
10041;SDS011;5061;49.068;12.058;2022-08-19T13:44:33;4.87;;;4.40;;
10041;SDS011;5061;49.068;12.058;2022-08-19T13:47:54;5.30;;;4.77;;
10041;SDS011;5061;49.068;12.058;2022-08-19T13:51:17;4.53;;;4.13;;
10041;SDS011;5061;49.068;12.058;2022-08-19T13:54:38;5.30;;;4.80;;
10041;SDS011;5061;49.068;12.058;2022-08-19T13:57:59;4.20;;;3.83;;
10041;SDS011;5061;49.068;12.058;2022-08-19T14:01:22;5.90;;;5.20;;
10041;SDS011;5061;49.068;12.058;2022-08-19T14:04:44;4.47;;;4.07;;
10041;SDS011;5061;49.068;12.058;2022-08-19T14:08:04;4.53;;;4.13;;
10041;SDS011;5061;49.068;12.058;2022-08-19T14:11:25;4.20;;;3.80;;
10041;SDS011;5061;49.068;12.058;2022-08-19T14:14:46;4.70;;;4.30;;
10041;SDS011;5061;49.068;12.058;2022-08-19T14:18:07;4.00;;;3.70;;
10041;SDS011;5061;49.068;12.058;2022-08-19T14:21:27;3.27;;;3.07;;
10041;SDS011;5061;49.068;12.058;2022-08-19T14:24:48;2.90;;;2.70;;
10041;SDS011;5061;49.068;12.058;2022-08-19T14:28:10;4.03;;;3.63;;
10041;SDS011;5061;49.068;12.058;2022-08-19T14:31:30;3.60;;;3.30;;
10041;SDS011;5061;49.068;12.058;2022-08-19T14:34:51;4.47;;;4.07;;
10041;SDS011;5061;49.068;12.058;2022-08-19T14:38:16;3.90;;;3.50;;
10041;SDS011;5061;49.068;12.058;2022-08-19T14:41:39;3.83;;;3.53;;
10041;SDS011;5061;49.068;12.058;2022-08-19T14:45:02;3.43;;;3.13;;
10041;SDS011;5061;49.068;12.058;2022-08-19T14:48:25;5.00;;;3.90;;
10041;SDS011;5061;49.068;12.058;2022-08-19T14:51:46;3.90;;;3.60;;
10041;SDS011;5061;49.068;12.058;2022-08-19T14:55:07;4.10;;;3.70;;
10041;SDS011;5061;49.068;12.058;2022-08-19T14:58:28;4.70;;;4.30;;
10041;SDS011;5061;49.068;12.058;2022-08-19T15:01:49;4.07;;;3.77;;
10041;SDS011;5061;49.068;12.058;2022-08-19T15:05:10;4.57;;;3.33;;
10041;SDS011;5061;49.068;12.058;2022-08-19T15:08:31;3.37;;;3.07;;
10041;SDS011;5061;49.068;12.058;2022-08-19T15:11:55;3.20;;;2.90;;
10041;SDS011;5061;49.068;12.058;2022-08-19T15:15:17;4.20;;;3.47;;
10041;SDS011;5061;49.068;12.058;2022-08-19T15:18:39;4.03;;;3.70;;
10041;SDS011;5061;49.068;12.058;2022-08-19T15:21:59;3.33;;;2.97;;
10041;SDS011;5061;49.068;12.058;2022-08-19T15:25:20;4.83;;;4.43;;
10041;SDS011;5061;49.068;12.058;2022-08-19T15:28:41;3.87;;;3.57;;
10041;SDS011;5061;49.068;12.058;2022-08-19T15:32:02;4.87;;;3.80;;
10041;SDS011;5061;49.068;12.058;2022-08-19T15:35:25;5.73;;;5.23;;
10041;SDS011;5061;49.068;12.058;2022-08-19T15:38:48;4.40;;;4.00;;
10041;SDS011;5061;49.068;12.058;2022-08-19T15:42:11;5.07;;;4.67;;
10041;SDS011;5061;49.068;12.058;2022-08-19T15:45:31;6.10;;;5.50;;
10041;SDS011;5061;49.068;12.058;2022-08-19T15:48:52;6.73;;;6.03;;
10041;SDS011;5061;49.068;12.058;2022-08-19T15:52:14;5.73;;;5.17;;
10041;SDS011;5061;49.068;12.058;2022-08-19T15:55:35;6.00;;;5.40;;
10041;SDS011;5061;49.068;12.058;2022-08-19T15:59:01;5.43;;;4.93;;
10041;SDS011;5061;49.068;12.058;2022-08-19T16:02:40;5.40;;;4.90;;
10041;SDS011;5061;49.068;12.058;2022-08-19T16:06:19;6.30;;;5.70;;
10041;SDS011;5061;49.068;12.058;2022-08-19T16:09:45;7.87;;;7.07;;
10041;SDS011;5061;49.068;12.058;2022-08-19T16:13:06;8.70;;;7.80;;
10041;SDS011;5061;49.068;12.058;2022-08-19T16:16:31;7.40;;;6.70;;
10041;SDS011;5061;49.068;12.058;2022-08-19T16:19:53;7.20;;;6.50;;
10041;SDS011;5061;49.068;12.058;2022-08-19T16:23:13;7.37;;;6.67;;
10041;SDS011;5061;49.068;12.058;2022-08-19T16:26:35;7.37;;;6.20;;
10041;SDS011;5061;49.068;12.058;2022-08-19T16:29:56;6.67;;;5.97;;
10041;SDS011;5061;49.068;12.058;2022-08-19T16:33:17;5.20;;;4.70;;
10041;SDS011;5061;49.068;12.058;2022-08-19T16:36:37;5.33;;;4.17;;
10041;SDS011;5061;49.068;12.058;2022-08-19T16:40:01;5.03;;;4.50;;
10041;SDS011;5061;49.068;12.058;2022-08-19T16:43:23;5.93;;;4.27;;
10041;SDS011;5061;49.068;12.058;2022-08-19T16:46:44;5.10;;;4.57;;
10041;SDS011;5061;49.068;12.058;2022-08-19T16:50:06;4.60;;;4.20;;
10041;SDS011;5061;49.068;12.058;2022-08-19T16:53:27;5.20;;;4.70;;
10041;SDS011;5061;49.068;12.058;2022-08-19T16:56:48;4.97;;;4.47;;
10041;SDS011;5061;49.068;12.058;2022-08-19T17:00:10;3.80;;;3.50;;
10041;SDS011;5061;49.068;12.058;2022-08-19T17:03:32;6.57;;;5.97;;
10041;SDS011;5061;49.068;12.058;2022-08-19T17:06:54;6.07;;;5.47;;
10041;SDS011;5061;49.068;12.058;2022-08-19T17:10:15;8.10;;;7.10;;
10041;SDS011;5061;49.068;12.058;2022-08-19T17:13:36;6.60;;;5.90;;
10041;SDS011;5061;49.068;12.058;2022-08-19T17:16:57;7.17;;;6.20;;
10041;SDS011;5061;49.068;12.058;2022-08-19T17:20:18;6.27;;;5.43;;
10041;SDS011;5061;49.068;12.058;2022-08-19T17:23:39;7.23;;;6.50;;
10041;SDS011;5061;49.068;12.058;2022-08-19T17:27:00;7.47;;;6.17;;
10041;SDS011;5061;49.068;12.058;2022-08-19T17:30:21;6.07;;;5.10;;
10041;SDS011;5061;49.068;12.058;2022-08-19T17:33:42;7.13;;;5.90;;
10041;SDS011;5061;49.068;12.058;2022-08-19T17:37:03;6.40;;;5.70;;
10041;SDS011;5061;49.068;12.058;2022-08-19T17:40:23;8.33;;;5.70;;
10041;SDS011;5061;49.068;12.058;2022-08-19T17:43:45;6.50;;;5.40;;
10041;SDS011;5061;49.068;12.058;2022-08-19T17:47:05;5.30;;;4.70;;
10041;SDS011;5061;49.068;12.058;2022-08-19T17:50:26;4.33;;;3.93;;
10041;SDS011;5061;49.068;12.058;2022-08-19T17:53:48;4.00;;;3.60;;
10041;SDS011;5061;49.068;12.058;2022-08-19T17:57:11;5.53;;;4.90;;
10041;SDS011;5061;49.068;12.058;2022-08-19T18:00:33;5.93;;;5.33;;
10041;SDS011;5061;49.068;12.058;2022-08-19T18:03:54;4.60;;;4.20;;
10041;SDS011;5061;49.068;12.058;2022-08-19T18:07:15;5.30;;;4.57;;
10041;SDS011;5061;49.068;12.058;2022-08-19T18:10:40;4.20;;;3.80;;
10041;SDS011;5061;49.068;12.058;2022-08-19T18:14:00;5.30;;;4.80;;
10041;SDS011;5061;49.068;12.058;2022-08-19T18:17:21;4.50;;;4.10;;
10041;SDS011;5061;49.068;12.058;2022-08-19T18:20:43;6.80;;;4.80;;
10041;SDS011;5061;49.068;12.058;2022-08-19T18:24:04;5.20;;;4.70;;
10041;SDS011;5061;49.068;12.058;2022-08-19T18:27:25;4.80;;;4.27;;
10041;SDS011;5061;49.068;12.058;2022-08-19T18:30:46;4.63;;;4.13;;
10041;SDS011;5061;49.068;12.058;2022-08-19T18:34:07;5.43;;;4.90;;
10041;SDS011;5061;49.068;12.058;2022-08-19T18:37:29;4.37;;;3.97;;
10041;SDS011;5061;49.068;12.058;2022-08-19T18:40:49;3.67;;;3.37;;
10041;SDS011;5061;49.068;12.058;2022-08-19T18:44:28;4.43;;;4.03;;
10041;SDS011;5061;49.068;12.058;2022-08-19T18:48:07;4.83;;;4.10;;
10041;SDS011;5061;49.068;12.058;2022-08-19T18:51:46;4.20;;;3.80;;
10041;SDS011;5061;49.068;12.058;2022-08-19T18:55:08;4.80;;;4.30;;
10041;SDS011;5061;49.068;12.058;2022-08-19T18:58:29;5.97;;;5.37;;
10041;SDS011;5061;49.068;12.058;2022-08-19T19:01:54;6.23;;;5.63;;
10041;SDS011;5061;49.068;12.058;2022-08-19T19:05:16;7.43;;;6.13;;
10041;SDS011;5061;49.068;12.058;2022-08-19T19:08:36;6.20;;;4.47;;
10041;SDS011;5061;49.068;12.058;2022-08-19T19:12:00;4.20;;;3.80;;
10041;SDS011;5061;49.068;12.058;2022-08-19T19:15:23;5.27;;;4.73;;
10041;SDS011;5061;49.068;12.058;2022-08-19T19:18:43;10.10;;;7.47;;
10041;SDS011;5061;49.068;12.058;2022-08-19T19:22:04;8.37;;;6.97;;
10041;SDS011;5061;49.068;12.058;2022-08-19T19:25:25;7.17;;;5.20;;
10041;SDS011;5061;49.068;12.058;2022-08-19T19:28:46;6.37;;;5.77;;
10041;SDS011;5061;49.068;12.058;2022-08-19T19:32:09;6.00;;;4.97;;
10041;SDS011;5061;49.068;12.058;2022-08-19T19:35:36;4.93;;;4.47;;
10041;SDS011;5061;49.068;12.058;2022-08-19T19:38:56;7.87;;;6.07;;
10041;SDS011;5061;49.068;12.058;2022-08-19T19:42:18;5.27;;;4.77;;
10041;SDS011;5061;49.068;12.058;2022-08-19T19:45:41;5.93;;;5.43;;
10041;SDS011;5061;49.068;12.058;2022-08-19T19:49:02;5.40;;;4.90;;
10041;SDS011;5061;49.068;12.058;2022-08-19T19:52:23;5.00;;;4.50;;
10041;SDS011;5061;49.068;12.058;2022-08-19T19:55:45;6.77;;;6.17;;
10041;SDS011;5061;49.068;12.058;2022-08-19T19:59:06;6.23;;;5.40;;
10041;SDS011;5061;49.068;12.058;2022-08-19T20:02:29;7.53;;;5.60;;
10041;SDS011;5061;49.068;12.058;2022-08-19T20:05:49;7.17;;;5.87;;
10041;SDS011;5061;49.068;12.058;2022-08-19T20:09:12;7.30;;;6.60;;
10041;SDS011;5061;49.068;12.058;2022-08-19T20:12:36;7.70;;;6.90;;
10041;SDS011;5061;49.068;12.058;2022-08-19T20:15:58;8.93;;;7.63;;
10041;SDS011;5061;49.068;12.058;2022-08-19T20:19:22;7.90;;;7.10;;
10041;SDS011;5061;49.068;12.058;2022-08-19T20:22:45;10.33;;;8.77;;
10041;SDS011;5061;49.068;12.058;2022-08-19T20:26:06;9.33;;;8.40;;
10041;SDS011;5061;49.068;12.058;2022-08-19T20:29:27;9.50;;;8.20;;